SPTNT EPGL-EPGL
Flight info
| Callsign | SPTNT |
|---|---|
| Flight time | 0h 34m |
| Altitude | 2000 |
| Route | DCT 502044N0181221E DCT AEPKN DCT |
| Aircraft | BR23/L-VGD/A |
Departure
| Time | 2026-04-19 12:44 |
|---|---|
| Airport | Gliwice-Trynek Airfield (EPGL) |
Arrival
| Time | 2026-04-19 13:19 |
|---|---|
| Airport | Gliwice-Trynek Airfield (EPGL) |
| Time | Latitude | Longitude | Altitude | Speed | Heading |
|---|---|---|---|---|---|
| 2026-04-19 12:38 | 50.27121 | 18.67785 | 863 ft | 0 kts | 198° |
| 2026-04-19 12:41 | 50.27094 | 18.67784 | 866 ft | 7 kts | 152° |
| 2026-04-19 12:41 | 50.27046 | 18.67891 | 866 ft | 14 kts | 124° |
| 2026-04-19 12:42 | 50.26931 | 18.67907 | 866 ft | 20 kts | 184° |
| 2026-04-19 12:42 | 50.26817 | 18.67889 | 866 ft | 16 kts | 185° |
| 2026-04-19 12:42 | 50.26755 | 18.67875 | 865 ft | 2 kts | 240° |
| 2026-04-19 12:42 | 50.26753 | 18.67870 | 865 ft | 0 kts | 266° |
| 2026-04-19 12:43 | 50.26753 | 18.67869 | 865 ft | 0 kts | 266° |
| 2026-04-19 12:43 | 50.26753 | 18.67867 | 858 ft | 4 kts | 274° |
| 2026-04-19 12:43 | 50.26744 | 18.67545 | 867 ft | 55 kts | 268° |
| 2026-04-19 12:44 | 50.26728 | 18.66850 | 967 ft | 69 kts | 267° |
| 2026-04-19 12:44 | 50.26706 | 18.66063 | 1097 ft | 77 kts | 268° |
| 2026-04-19 12:44 | 50.26691 | 18.65229 | 1285 ft | 77 kts | 265° |
| 2026-04-19 12:44 | 50.26773 | 18.64397 | 1554 ft | 81 kts | 288° |
| 2026-04-19 12:45 | 50.26954 | 18.63549 | 1791 ft | 84 kts | 282° |
| 2026-04-19 12:45 | 50.27157 | 18.62655 | 1966 ft | 95 kts | 284° |
| 2026-04-19 12:45 | 50.27376 | 18.61594 | 1987 ft | 110 kts | 283° |
| 2026-04-19 12:45 | 50.27632 | 18.60410 | 1989 ft | 118 kts | 285° |
| 2026-04-19 12:46 | 50.27878 | 18.59195 | 1988 ft | 116 kts | 284° |
| 2026-04-19 12:46 | 50.28114 | 18.57986 | 1991 ft | 116 kts | 283° |
| 2026-04-19 12:46 | 50.28382 | 18.56780 | 1986 ft | 118 kts | 285° |
| 2026-04-19 12:46 | 50.28646 | 18.55555 | 1986 ft | 119 kts | 284° |
| 2026-04-19 12:47 | 50.28899 | 18.54329 | 1987 ft | 119 kts | 284° |
| 2026-04-19 12:47 | 50.29163 | 18.53118 | 1985 ft | 119 kts | 285° |
| 2026-04-19 12:47 | 50.29416 | 18.51917 | 1985 ft | 114 kts | 284° |
| 2026-04-19 12:47 | 50.29670 | 18.50735 | 1986 ft | 114 kts | 284° |
| 2026-04-19 12:48 | 50.29931 | 18.49546 | 1987 ft | 116 kts | 283° |
| 2026-04-19 12:48 | 50.30188 | 18.48318 | 1979 ft | 120 kts | 285° |
| 2026-04-19 12:48 | 50.30436 | 18.47107 | 1982 ft | 114 kts | 284° |
| 2026-04-19 12:48 | 50.30674 | 18.45918 | 1983 ft | 114 kts | 283° |
| 2026-04-19 12:49 | 50.30926 | 18.44756 | 1979 ft | 114 kts | 285° |
| 2026-04-19 12:49 | 50.31171 | 18.43572 | 1975 ft | 115 kts | 284° |
| 2026-04-19 12:49 | 50.31418 | 18.42371 | 1979 ft | 117 kts | 284° |
| 2026-04-19 12:49 | 50.31669 | 18.41149 | 1976 ft | 118 kts | 284° |
| 2026-04-19 12:50 | 50.31921 | 18.39935 | 1978 ft | 116 kts | 287° |
| 2026-04-19 12:50 | 50.32458 | 18.38988 | 1970 ft | 119 kts | 317° |
| 2026-04-19 12:50 | 50.33069 | 18.38108 | 1981 ft | 121 kts | 313° |
| 2026-04-19 12:50 | 50.33679 | 18.37195 | 1978 ft | 121 kts | 313° |
| 2026-04-19 12:51 | 50.34293 | 18.36269 | 1978 ft | 123 kts | 313° |
| 2026-04-19 12:51 | 50.34915 | 18.35350 | 1978 ft | 122 kts | 315° |
| 2026-04-19 12:51 | 50.35545 | 18.34416 | 1975 ft | 126 kts | 314° |
| 2026-04-19 12:51 | 50.36186 | 18.33456 | 1973 ft | 128 kts | 314° |
| 2026-04-19 12:52 | 50.36812 | 18.32527 | 1976 ft | 124 kts | 315° |
| 2026-04-19 12:52 | 50.37442 | 18.31583 | 1971 ft | 126 kts | 314° |
| 2026-04-19 12:52 | 50.38064 | 18.30659 | 1966 ft | 121 kts | 314° |
| 2026-04-19 12:52 | 50.38668 | 18.29734 | 1969 ft | 121 kts | 312° |
| 2026-04-19 12:53 | 50.39292 | 18.28819 | 1967 ft | 124 kts | 314° |
| 2026-04-19 12:53 | 50.39917 | 18.27911 | 1968 ft | 122 kts | 312° |
| 2026-04-19 12:53 | 50.40528 | 18.26994 | 1966 ft | 121 kts | 312° |
| 2026-04-19 12:53 | 50.41136 | 18.26085 | 1962 ft | 120 kts | 313° |
| 2026-04-19 12:54 | 50.41736 | 18.25189 | 1964 ft | 118 kts | 313° |
| 2026-04-19 12:54 | 50.42331 | 18.24295 | 1964 ft | 118 kts | 313° |
| 2026-04-19 12:54 | 50.42925 | 18.23407 | 1956 ft | 118 kts | 312° |
| 2026-04-19 12:54 | 50.43512 | 18.22526 | 1955 ft | 116 kts | 312° |
| 2026-04-19 12:55 | 50.44098 | 18.21650 | 1955 ft | 116 kts | 313° |
| 2026-04-19 12:55 | 50.44684 | 18.20772 | 1957 ft | 118 kts | 313° |
| 2026-04-19 12:55 | 50.45269 | 18.19886 | 1958 ft | 117 kts | 315° |
| 2026-04-19 12:55 | 50.45861 | 18.19018 | 1960 ft | 118 kts | 314° |
| 2026-04-19 12:56 | 50.46465 | 18.18112 | 1960 ft | 121 kts | 314° |
| 2026-04-19 12:56 | 50.47077 | 18.17212 | 1955 ft | 121 kts | 320° |
| 2026-04-19 12:56 | 50.47754 | 18.16416 | 1892 ft | 125 kts | 322° |
| 2026-04-19 12:56 | 50.48501 | 18.15728 | 1832 ft | 123 kts | 334° |
| 2026-04-19 12:57 | 50.49260 | 18.15207 | 1740 ft | 115 kts | 336° |
| 2026-04-19 12:57 | 50.49985 | 18.14769 | 1621 ft | 108 kts | 337° |
| 2026-04-19 12:57 | 50.50674 | 18.14358 | 1467 ft | 101 kts | 338° |
| 2026-04-19 12:57 | 50.51264 | 18.13864 | 1383 ft | 90 kts | 321° |
| 2026-04-19 12:58 | 50.51635 | 18.13206 | 1225 ft | 78 kts | 294° |
| 2026-04-19 12:58 | 50.51868 | 18.12455 | 1139 ft | 75 kts | 289° |
| 2026-04-19 12:58 | 50.52068 | 18.11711 | 1062 ft | 73 kts | 289° |
| 2026-04-19 12:58 | 50.52266 | 18.10997 | 970 ft | 70 kts | 288° |
| 2026-04-19 12:59 | 50.52458 | 18.10283 | 829 ft | 71 kts | 285° |
| 2026-04-19 12:59 | 50.52641 | 18.09585 | 690 ft | 62 kts | 284° |
| 2026-04-19 12:59 | 50.52746 | 18.09092 | 678 ft | 46 kts | 297° |
| 2026-04-19 12:59 | 50.52917 | 18.08471 | 735 ft | 70 kts | 288° |
| 2026-04-19 13:00 | 50.53141 | 18.07745 | 845 ft | 81 kts | 289° |
| 2026-04-19 13:00 | 50.53416 | 18.06935 | 1054 ft | 84 kts | 293° |
| 2026-04-19 13:00 | 50.53802 | 18.06265 | 1220 ft | 96 kts | 1° |
| 2026-04-19 13:00 | 50.54455 | 18.06471 | 1424 ft | 94 kts | 13° |
| 2026-04-19 13:01 | 50.55095 | 18.06699 | 1637 ft | 96 kts | 16° |
| 2026-04-19 13:01 | 50.55434 | 18.07444 | 1742 ft | 92 kts | 105° |
| 2026-04-19 13:01 | 50.55302 | 18.08443 | 1861 ft | 94 kts | 107° |
| 2026-04-19 13:01 | 50.55165 | 18.09436 | 1953 ft | 96 kts | 107° |
| 2026-04-19 13:02 | 50.55035 | 18.10515 | 1954 ft | 104 kts | 106° |
| 2026-04-19 13:02 | 50.54878 | 18.11640 | 1959 ft | 106 kts | 108° |
| 2026-04-19 13:02 | 50.54683 | 18.12775 | 1968 ft | 108 kts | 116° |
| 2026-04-19 13:02 | 50.54331 | 18.13822 | 1966 ft | 108 kts | 121° |
| 2026-04-19 13:03 | 50.53991 | 18.14844 | 1969 ft | 104 kts | 121° |
| 2026-04-19 13:03 | 50.53656 | 18.15860 | 1969 ft | 105 kts | 121° |
| 2026-04-19 13:03 | 50.53319 | 18.16879 | 1973 ft | 105 kts | 121° |
| 2026-04-19 13:03 | 50.52988 | 18.17883 | 1974 ft | 103 kts | 121° |
| 2026-04-19 13:04 | 50.52650 | 18.18881 | 1975 ft | 106 kts | 120° |
| 2026-04-19 13:04 | 50.52304 | 18.19922 | 1965 ft | 107 kts | 121° |
| 2026-04-19 13:04 | 50.51909 | 18.20839 | 1961 ft | 101 kts | 140° |
| 2026-04-19 13:04 | 50.51394 | 18.21614 | 1957 ft | 104 kts | 136° |
| 2026-04-19 13:05 | 50.50888 | 18.22435 | 1964 ft | 106 kts | 135° |
| 2026-04-19 13:05 | 50.50374 | 18.23272 | 1963 ft | 105 kts | 135° |
| 2026-04-19 13:05 | 50.49876 | 18.24101 | 1963 ft | 104 kts | 134° |
| 2026-04-19 13:05 | 50.49381 | 18.24925 | 1959 ft | 103 kts | 134° |
| 2026-04-19 13:06 | 50.48894 | 18.25728 | 1958 ft | 100 kts | 135° |
| 2026-04-19 13:06 | 50.48417 | 18.26516 | 1958 ft | 99 kts | 134° |
| 2026-04-19 13:06 | 50.47946 | 18.27299 | 1958 ft | 99 kts | 134° |
| 2026-04-19 13:06 | 50.47469 | 18.28090 | 1960 ft | 99 kts | 134° |
| 2026-04-19 13:07 | 50.46992 | 18.28884 | 1959 ft | 101 kts | 134° |
| 2026-04-19 13:07 | 50.46502 | 18.29688 | 1967 ft | 103 kts | 134° |
| 2026-04-19 13:07 | 50.46001 | 18.30531 | 1969 ft | 107 kts | 134° |
| 2026-04-19 13:07 | 50.45492 | 18.31380 | 1978 ft | 106 kts | 135° |
| 2026-04-19 13:08 | 50.44988 | 18.32218 | 1977 ft | 107 kts | 135° |
| 2026-04-19 13:08 | 50.44480 | 18.33063 | 1972 ft | 107 kts | 136° |
| 2026-04-19 13:08 | 50.43968 | 18.33910 | 1973 ft | 107 kts | 135° |
| 2026-04-19 13:08 | 50.43471 | 18.34746 | 1968 ft | 103 kts | 136° |
| 2026-04-19 13:09 | 50.42985 | 18.35542 | 1965 ft | 101 kts | 136° |
| 2026-04-19 13:09 | 50.42501 | 18.36340 | 1961 ft | 102 kts | 135° |
| 2026-04-19 13:09 | 50.42013 | 18.37147 | 1963 ft | 102 kts | 135° |
| 2026-04-19 13:09 | 50.41519 | 18.37965 | 1963 ft | 105 kts | 134° |
| 2026-04-19 13:10 | 50.41006 | 18.38814 | 1963 ft | 108 kts | 135° |
| 2026-04-19 13:10 | 50.40496 | 18.39659 | 1971 ft | 106 kts | 135° |
| 2026-04-19 13:10 | 50.39990 | 18.40494 | 1969 ft | 105 kts | 135° |
| 2026-04-19 13:10 | 50.39482 | 18.41336 | 1978 ft | 107 kts | 135° |
| 2026-04-19 13:11 | 50.39141 | 18.41894 | 1979 ft | 107 kts | 135° |
| 2026-04-19 13:11 | 50.38679 | 18.42808 | 1977 ft | 108 kts | 127° |
| 2026-04-19 13:11 | 50.38163 | 18.43657 | 1977 ft | 107 kts | 138° |
| 2026-04-19 13:11 | 50.37619 | 18.44463 | 1978 ft | 109 kts | 136° |
| 2026-04-19 13:12 | 50.36917 | 18.45525 | 1970 ft | 103 kts | 136° |
| 2026-04-19 13:12 | 50.36403 | 18.46309 | 1968 ft | 103 kts | 136° |
| 2026-04-19 13:12 | 50.36055 | 18.46846 | 1966 ft | 104 kts | 137° |
| 2026-04-19 13:12 | 50.35529 | 18.47650 | 1965 ft | 107 kts | 138° |
| 2026-04-19 13:13 | 50.35009 | 18.48450 | 1972 ft | 106 kts | 139° |
| 2026-04-19 13:13 | 50.34488 | 18.49253 | 1970 ft | 105 kts | 138° |
| 2026-04-19 13:13 | 50.33960 | 18.50056 | 1972 ft | 106 kts | 138° |
| 2026-04-19 13:13 | 50.33435 | 18.50863 | 1978 ft | 105 kts | 139° |
| 2026-04-19 13:14 | 50.32909 | 18.51668 | 1974 ft | 106 kts | 138° |
| 2026-04-19 13:14 | 50.32387 | 18.52475 | 1971 ft | 105 kts | 138° |
| 2026-04-19 13:14 | 50.31864 | 18.53271 | 1969 ft | 105 kts | 139° |
| 2026-04-19 13:14 | 50.31348 | 18.54066 | 1966 ft | 104 kts | 138° |
| 2026-04-19 13:15 | 50.30826 | 18.54868 | 1964 ft | 106 kts | 137° |
| 2026-04-19 13:15 | 50.30299 | 18.55674 | 1961 ft | 107 kts | 136° |
| 2026-04-19 13:15 | 50.29770 | 18.56484 | 1962 ft | 106 kts | 136° |
| 2026-04-19 13:15 | 50.29243 | 18.57288 | 1962 ft | 105 kts | 136° |
| 2026-04-19 13:16 | 50.28730 | 18.58080 | 1960 ft | 103 kts | 136° |
| 2026-04-19 13:16 | 50.28225 | 18.58848 | 1959 ft | 100 kts | 137° |
| 2026-04-19 13:16 | 50.27726 | 18.59600 | 1961 ft | 100 kts | 137° |
| 2026-04-19 13:16 | 50.27262 | 18.60425 | 1919 ft | 105 kts | 125° |
| 2026-04-19 13:17 | 50.26914 | 18.61452 | 1886 ft | 107 kts | 121° |
| 2026-04-19 13:17 | 50.26588 | 18.62480 | 1883 ft | 105 kts | 118° |
| 2026-04-19 13:17 | 50.26282 | 18.63548 | 1794 ft | 108 kts | 116° |
| 2026-04-19 13:17 | 50.26008 | 18.64657 | 1589 ft | 108 kts | 120° |
| 2026-04-19 13:18 | 50.25725 | 18.65734 | 1417 ft | 111 kts | 98° |
| 2026-04-19 13:18 | 50.25763 | 18.66897 | 1312 ft | 101 kts | 85° |
| 2026-04-19 13:18 | 50.25899 | 18.67942 | 1188 ft | 97 kts | 79° |
| 2026-04-19 13:18 | 50.26290 | 18.68653 | 1091 ft | 87 kts | 5° |
| 2026-04-19 13:19 | 50.26710 | 18.68309 | 951 ft | 64 kts | 291° |
| 2026-04-19 13:19 | 50.26748 | 18.67687 | 872 ft | 52 kts | 265° |
| 2026-04-19 13:19 | 50.26730 | 18.67294 | 865 ft | 6 kts | 256° |
| 2026-04-19 13:19 | 50.26742 | 18.67333 | 866 ft | 13 kts | 92° |
| 2026-04-19 13:20 | 50.26745 | 18.67530 | 867 ft | 20 kts | 86° |
| 2026-04-19 13:20 | 50.26752 | 18.67742 | 858 ft | 21 kts | 84° |
| 2026-04-19 13:20 | 50.26781 | 18.67883 | 858 ft | 10 kts | 18° |
| 2026-04-19 13:20 | 50.26889 | 18.67900 | 866 ft | 22 kts | 1° |
| 2026-04-19 13:21 | 50.27035 | 18.67904 | 859 ft | 12 kts | 334° |
| 2026-04-19 13:21 | 50.27077 | 18.67787 | 859 ft | 14 kts | 317° |
| 2026-04-19 13:21 | 50.27106 | 18.67776 | 859 ft | 0 kts | 17° |